sensor_id;sensor_type;location;lat;lon;timestamp;pressure;altitude;pressure_sealevel;temperature;humidity
4415;BME280;2220;42.670;23.398;2023-08-20T00:02:03;95205.25;;;21.34;100.00
4415;BME280;2220;42.670;23.398;2023-08-20T00:04:36;95202.72;;;21.38;100.00
4415;BME280;2220;42.670;23.398;2023-08-20T00:07:02;95211.47;;;21.38;100.00
4415;BME280;2220;42.670;23.398;2023-08-20T00:09:28;95214.28;;;21.42;100.00
4415;BME280;2220;42.670;23.398;2023-08-20T00:11:55;95213.78;;;21.48;100.00
4415;BME280;2220;42.670;23.398;2023-08-20T00:14:56;95215.06;;;21.51;100.00
4415;BME280;2220;42.670;23.398;2023-08-20T00:17:24;95208.66;;;21.52;100.00
4415;BME280;2220;42.670;23.398;2023-08-20T00:19:53;95214.25;;;21.59;100.00
4415;BME280;2220;42.670;23.398;2023-08-20T00:22:22;95218.91;;;21.71;100.00
4415;BME280;2220;42.670;23.398;2023-08-20T00:24:48;95208.47;;;21.74;100.00
4415;BME280;2220;42.670;23.398;2023-08-20T00:27:14;95214.25;;;21.68;100.00
4415;BME280;2220;42.670;23.398;2023-08-20T00:29:39;95215.50;;;21.70;100.00
4415;BME280;2220;42.670;23.398;2023-08-20T00:32:05;95214.88;;;21.65;100.00
4415;BME280;2220;42.670;23.398;2023-08-20T00:34:31;95212.69;;;21.67;100.00
4415;BME280;2220;42.670;23.398;2023-08-20T00:36:56;95216.91;;;21.68;100.00
4415;BME280;2220;42.670;23.398;2023-08-20T00:39:21;95207.41;;;21.58;100.00
4415;BME280;2220;42.670;23.398;2023-08-20T00:41:47;95202.41;;;21.57;100.00
4415;BME280;2220;42.670;23.398;2023-08-20T00:44:12;95203.47;;;21.64;100.00
4415;BME280;2220;42.670;23.398;2023-08-20T00:46:38;95206.44;;;21.63;100.00
4415;BME280;2220;42.670;23.398;2023-08-20T00:49:04;95206.13;;;21.64;100.00
4415;BME280;2220;42.670;23.398;2023-08-20T00:51:33;95204.59;;;21.55;100.00
4415;BME280;2220;42.670;23.398;2023-08-20T00:53:59;95195.72;;;21.50;100.00
4415;BME280;2220;42.670;23.398;2023-08-20T00:56:25;95201.63;;;21.56;100.00
4415;BME280;2220;42.670;23.398;2023-08-20T00:58:53;95201.81;;;21.51;100.00
4415;BME280;2220;42.670;23.398;2023-08-20T01:01:21;95200.25;;;21.50;100.00
4415;BME280;2220;42.670;23.398;2023-08-20T01:03:47;95205.22;;;21.43;100.00
4415;BME280;2220;42.670;23.398;2023-08-20T01:06:20;95204.91;;;21.44;100.00
4415;BME280;2220;42.670;23.398;2023-08-20T01:08:55;95202.41;;;21.48;100.00
4415;BME280;2220;42.670;23.398;2023-08-20T01:11:29;95198.53;;;21.37;100.00
4415;BME280;2220;42.670;23.398;2023-08-20T01:13:55;95196.19;;;21.44;100.00
4415;BME280;2220;42.670;23.398;2023-08-20T01:16:21;95196.03;;;21.40;100.00
4415;BME280;2220;42.670;23.398;2023-08-20T01:18:47;95192.75;;;21.52;100.00
4415;BME280;2220;42.670;23.398;2023-08-20T01:21:27;95200.53;;;21.48;100.00
4415;BME280;2220;42.670;23.398;2023-08-20T01:24:03;95198.66;;;21.49;100.00
4415;BME280;2220;42.670;23.398;2023-08-20T01:29:35;95207.69;;;21.57;100.00
4415;BME280;2220;42.670;23.398;2023-08-20T01:32:02;95198.38;;;21.42;100.00
4415;BME280;2220;42.670;23.398;2023-08-20T01:34:28;95198.06;;;21.43;100.00
4415;BME280;2220;42.670;23.398;2023-08-20T01:36:54;95195.56;;;21.38;100.00
4415;BME280;2220;42.670;23.398;2023-08-20T01:39:19;95196.66;;;21.46;100.00
4415;BME280;2220;42.670;23.398;2023-08-20T01:41:45;95193.69;;;21.47;100.00
4415;BME280;2220;42.670;23.398;2023-08-20T01:44:11;95185.72;;;21.47;100.00
4415;BME280;2220;42.670;23.398;2023-08-20T01:46:36;95181.84;;;21.54;100.00
4415;BME280;2220;42.670;23.398;2023-08-20T01:49:02;95180.13;;;21.58;100.00
4415;BME280;2220;42.670;23.398;2023-08-20T01:51:28;95177.47;;;21.58;100.00
4415;BME280;2220;42.670;23.398;2023-08-20T01:53:54;95172.78;;;21.55;100.00
4415;BME280;2220;42.670;23.398;2023-08-20T01:56:19;95179.19;;;21.45;100.00
4415;BME280;2220;42.670;23.398;2023-08-20T01:58:45;95173.91;;;21.36;100.00
4415;BME280;2220;42.670;23.398;2023-08-20T02:01:10;95165.31;;;21.31;100.00
4415;BME280;2220;42.670;23.398;2023-08-20T02:03:36;95153.94;;;21.21;100.00
4415;BME280;2220;42.670;23.398;2023-08-20T02:06:03;95156.72;;;21.25;100.00
4415;BME280;2220;42.670;23.398;2023-08-20T02:08:28;95149.41;;;21.05;100.00
4415;BME280;2220;42.670;23.398;2023-08-20T02:11:04;95143.66;;;21.03;100.00
4415;BME280;2220;42.670;23.398;2023-08-20T02:13:30;95136.63;;;20.89;100.00
4415;BME280;2220;42.670;23.398;2023-08-20T02:18:25;95134.63;;;21.04;100.00
4415;BME280;2220;42.670;23.398;2023-08-20T02:20:51;95135.53;;;20.99;100.00
4415;BME280;2220;42.670;23.398;2023-08-20T02:23:16;95125.25;;;20.72;100.00
4415;BME280;2220;42.670;23.398;2023-08-20T02:25:43;95121.81;;;20.62;100.00
4415;BME280;2220;42.670;23.398;2023-08-20T02:28:09;95116.38;;;20.67;100.00
4415;BME280;2220;42.670;23.398;2023-08-20T02:30:43;95116.88;;;20.78;100.00
4415;BME280;2220;42.670;23.398;2023-08-20T02:33:09;95106.41;;;20.64;100.00
4415;BME280;2220;42.670;23.398;2023-08-20T02:35:35;95119.50;;;20.70;100.00
4415;BME280;2220;42.670;23.398;2023-08-20T02:38:01;95122.75;;;20.75;100.00
4415;BME280;2220;42.670;23.398;2023-08-20T02:40:26;95126.50;;;20.65;100.00
4415;BME280;2220;42.670;23.398;2023-08-20T02:42:52;95118.09;;;20.72;100.00
4415;BME280;2220;42.670;23.398;2023-08-20T02:45:17;95119.78;;;20.68;100.00
4415;BME280;2220;42.670;23.398;2023-08-20T02:47:43;95112.34;;;20.61;100.00
4415;BME280;2220;42.670;23.398;2023-08-20T02:50:08;95130.09;;;20.70;100.00
4415;BME280;2220;42.670;23.398;2023-08-20T02:52:34;95120.56;;;20.68;100.00
4415;BME280;2220;42.670;23.398;2023-08-20T02:54:59;95119.31;;;20.57;100.00
4415;BME280;2220;42.670;23.398;2023-08-20T02:57:25;95133.97;;;20.72;100.00
4415;BME280;2220;42.670;23.398;2023-08-20T02:59:51;95129.94;;;20.83;100.00
4415;BME280;2220;42.670;23.398;2023-08-20T03:02:16;95133.34;;;20.75;100.00
4415;BME280;2220;42.670;23.398;2023-08-20T03:04:42;95135.41;;;20.78;100.00
4415;BME280;2220;42.670;23.398;2023-08-20T03:07:08;95136.94;;;20.79;100.00
4415;BME280;2220;42.670;23.398;2023-08-20T03:09:33;95126.03;;;20.63;100.00
4415;BME280;2220;42.670;23.398;2023-08-20T03:11:59;95123.22;;;20.60;100.00
4415;BME280;2220;42.670;23.398;2023-08-20T03:14:24;95121.78;;;20.45;100.00
4415;BME280;2220;42.670;23.398;2023-08-20T03:16:50;95100.06;;;20.26;100.00
4415;BME280;2220;42.670;23.398;2023-08-20T03:19:15;95114.72;;;20.23;100.00
4415;BME280;2220;42.670;23.398;2023-08-20T03:21:41;95106.06;;;20.00;100.00
4415;BME280;2220;42.670;23.398;2023-08-20T03:24:07;95098.91;;;20.01;100.00
4415;BME280;2220;42.670;23.398;2023-08-20T03:26:33;95105.00;;;20.10;100.00
4415;BME280;2220;42.670;23.398;2023-08-20T03:28:58;95102.50;;;20.05;100.00
4415;BME280;2220;42.670;23.398;2023-08-20T03:31:24;95109.09;;;20.16;100.00
4415;BME280;2220;42.670;23.398;2023-08-20T03:33:50;95117.78;;;20.17;100.00
4415;BME280;2220;42.670;23.398;2023-08-20T03:36:15;95105.78;;;20.10;100.00
4415;BME280;2220;42.670;23.398;2023-08-20T03:38:41;95114.03;;;20.09;100.00
4415;BME280;2220;42.670;23.398;2023-08-20T03:41:06;95115.16;;;20.17;100.00
4415;BME280;2220;42.670;23.398;2023-08-20T03:43:32;95112.63;;;20.11;100.00
4415;BME280;2220;42.670;23.398;2023-08-20T03:45:57;95107.38;;;20.20;100.00
4415;BME280;2220;42.670;23.398;2023-08-20T03:48:23;95113.16;;;20.22;100.00
4415;BME280;2220;42.670;23.398;2023-08-20T03:50:48;95119.38;;;20.26;100.00
4415;BME280;2220;42.670;23.398;2023-08-20T03:53:14;95116.56;;;20.23;100.00
4415;BME280;2220;42.670;23.398;2023-08-20T03:55:39;95116.72;;;20.26;100.00
4415;BME280;2220;42.670;23.398;2023-08-20T03:58:05;95111.91;;;20.28;100.00
4415;BME280;2220;42.670;23.398;2023-08-20T04:00:30;95116.16;;;20.38;100.00
4415;BME280;2220;42.670;23.398;2023-08-20T04:02:56;95128.88;;;20.36;100.00
4415;BME280;2220;42.670;23.398;2023-08-20T04:05:21;95116.16;;;20.38;100.00
4415;BME280;2220;42.670;23.398;2023-08-20T04:07:47;95118.16;;;20.32;100.00
4415;BME280;2220;42.670;23.398;2023-08-20T04:10:12;95132.31;;;20.36;100.00
4415;BME280;2220;42.670;23.398;2023-08-20T04:12:37;95129.63;;;20.28;100.00
4415;BME280;2220;42.670;23.398;2023-08-20T04:15:03;95123.88;;;20.26;100.00
4415;BME280;2220;42.670;23.398;2023-08-20T04:17:29;95121.09;;;20.22;100.00
4415;BME280;2220;42.670;23.398;2023-08-20T04:19:54;95124.47;;;20.14;100.00
4415;BME280;2220;42.670;23.398;2023-08-20T04:22:20;95119.31;;;20.09;100.00
4415;BME280;2220;42.670;23.398;2023-08-20T04:24:45;95117.47;;;20.09;100.00
4415;BME280;2220;42.670;23.398;2023-08-20T04:27:10;95111.84;;;20.11;100.00
4415;BME280;2220;42.670;23.398;2023-08-20T04:29:36;95116.81;;;20.04;100.00
4415;BME280;2220;42.670;23.398;2023-08-20T04:32:02;95109.50;;;20.01;100.00
4415;BME280;2220;42.670;23.398;2023-08-20T04:34:27;95105.31;;;20.08;100.00
4415;BME280;2220;42.670;23.398;2023-08-20T04:36:53;95111.09;;;20.19;100.00
4415;BME280;2220;42.670;23.398;2023-08-20T04:39:18;95120.78;;;20.32;100.00
4415;BME280;2220;42.670;23.398;2023-08-20T04:41:44;95122.66;;;20.32;100.00
4415;BME280;2220;42.670;23.398;2023-08-20T04:44:09;95127.25;;;20.49;100.00
4415;BME280;2220;42.670;23.398;2023-08-20T04:46:35;95128.50;;;20.60;100.00
4415;BME280;2220;42.670;23.398;2023-08-20T04:49:00;95134.91;;;20.67;100.00
4415;BME280;2220;42.670;23.398;2023-08-20T04:51:26;95127.41;;;20.61;100.00
4415;BME280;2220;42.670;23.398;2023-08-20T04:53:51;95138.31;;;20.77;100.00
4415;BME280;2220;42.670;23.398;2023-08-20T04:56:16;95150.66;;;20.90;100.00
4415;BME280;2220;42.670;23.398;2023-08-20T04:58:42;95149.09;;;20.98;100.00
4415;BME280;2220;42.670;23.398;2023-08-20T05:01:07;95151.59;;;21.03;100.00
4415;BME280;2220;42.670;23.398;2023-08-20T05:03:34;95149.25;;;20.84;100.00
4415;BME280;2220;42.670;23.398;2023-08-20T05:05:59;95146.13;;;20.90;100.00
4415;BME280;2220;42.670;23.398;2023-08-20T05:08:25;95145.66;;;20.80;100.00
4415;BME280;2220;42.670;23.398;2023-08-20T05:10:50;95138.81;;;20.87;100.00
4415;BME280;2220;42.670;23.398;2023-08-20T05:13:17;95141.47;;;21.05;100.00
4415;BME280;2220;42.670;23.398;2023-08-20T05:15:42;95127.28;;;20.92;100.00
4415;BME280;2220;42.670;23.398;2023-08-20T05:18:08;95124.81;;;20.95;100.00
4415;BME280;2220;42.670;23.398;2023-08-20T05:20:33;95116.88;;;20.78;100.00
4415;BME280;2220;42.670;23.398;2023-08-20T05:22:59;95126.38;;;20.97;100.00
4415;BME280;2220;42.670;23.398;2023-08-20T05:25:24;95133.34;;;20.75;100.00
4415;BME280;2220;42.670;23.398;2023-08-20T05:27:50;95132.44;;;20.80;100.00
4415;BME280;2220;42.670;23.398;2023-08-20T05:30:15;95125.88;;;20.77;100.00
4415;BME280;2220;42.670;23.398;2023-08-20T05:32:41;95114.03;;;20.57;100.00
4415;BME280;2220;42.670;23.398;2023-08-20T05:35:06;95115.75;;;20.62;100.00
4415;BME280;2220;42.670;23.398;2023-08-20T05:37:32;95128.56;;;20.86;100.00
4415;BME280;2220;42.670;23.398;2023-08-20T05:39:57;95133.53;;;21.05;100.00
4415;BME280;2220;42.670;23.398;2023-08-20T05:42:23;95142.41;;;21.09;100.00
4415;BME280;2220;42.670;23.398;2023-08-20T05:44:48;95156.72;;;21.25;100.00
4415;BME280;2220;42.670;23.398;2023-08-20T05:47:14;95161.25;;;21.33;100.00
4415;BME280;2220;42.670;23.398;2023-08-20T05:49:39;95156.47;;;21.35;100.00
4415;BME280;2220;42.670;23.398;2023-08-20T05:52:05;95163.94;;;21.42;100.00
4415;BME280;2220;42.670;23.398;2023-08-20T05:54:30;95170.47;;;21.44;100.00
4415;BME280;2220;42.670;23.398;2023-08-20T05:56:57;95160.19;;;21.34;100.00
4415;BME280;2220;42.670;23.398;2023-08-20T05:59:24;95175.59;;;21.58;100.00
4415;BME280;2220;42.670;23.398;2023-08-20T06:01:49;95173.50;;;21.81;100.00
4415;BME280;2220;42.670;23.398;2023-08-20T06:04:14;95183.63;;;21.96;100.00
4415;BME280;2220;42.670;23.398;2023-08-20T06:06:40;95184.09;;;21.98;100.00
4415;BME280;2220;42.670;23.398;2023-08-20T06:09:05;95167.13;;;21.91;100.00
4415;BME280;2220;42.670;23.398;2023-08-20T06:11:31;95163.66;;;21.99;100.00
4415;BME280;2220;42.670;23.398;2023-08-20T06:13:56;95174.41;;;22.02;100.00
4415;BME280;2220;42.670;23.398;2023-08-20T06:16:22;95187.56;;;22.37;100.00
4415;BME280;2220;42.670;23.398;2023-08-20T06:18:47;95192.44;;;22.26;100.00
4415;BME280;2220;42.670;23.398;2023-08-20T06:21:13;95186.41;;;22.55;100.00
4415;BME280;2220;42.670;23.398;2023-08-20T06:23:38;95195.91;;;22.56;100.00
4415;BME280;2220;42.670;23.398;2023-08-20T06:26:04;95200.28;;;22.82;100.00
4415;BME280;2220;42.670;23.398;2023-08-20T06:28:29;95201.44;;;23.02;100.00
4415;BME280;2220;42.670;23.398;2023-08-20T06:30:55;95215.31;;;23.07;100.00
4415;BME280;2220;42.670;23.398;2023-08-20T06:33:21;95199.78;;;23.18;100.00
4415;BME280;2220;42.670;23.398;2023-08-20T06:35:47;95211.31;;;23.43;100.00
4415;BME280;2220;42.670;23.398;2023-08-20T06:38:12;95213.13;;;23.51;100.00
4415;BME280;2220;42.670;23.398;2023-08-20T06:40:37;95205.88;;;23.60;100.00
4415;BME280;2220;42.670;23.398;2023-08-20T06:43:03;95212.16;;;23.89;100.00
4415;BME280;2220;42.670;23.398;2023-08-20T06:45:29;95214.09;;;24.00;100.00
4415;BME280;2220;42.670;23.398;2023-08-20T06:47:55;95213.59;;;24.32;100.00
4415;BME280;2220;42.670;23.398;2023-08-20T06:50:20;95213.63;;;24.68;100.00
4415;BME280;2220;42.670;23.398;2023-08-20T06:52:46;95206.75;;;24.92;100.00
4415;BME280;2220;42.670;23.398;2023-08-20T06:55:11;95209.19;;;24.84;100.00
4415;BME280;2220;42.670;23.398;2023-08-20T06:57:36;95220.38;;;25.02;100.00
4415;BME280;2220;42.670;23.398;2023-08-20T07:00:02;95210.50;;;25.15;100.00
4415;BME280;2220;42.670;23.398;2023-08-20T07:02:30;95215.91;;;25.31;100.00
4415;BME280;2220;42.670;23.398;2023-08-20T07:04:55;95222.63;;;25.53;100.00
4415;BME280;2220;42.670;23.398;2023-08-20T07:07:20;95222.22;;;25.66;100.00
4415;BME280;2220;42.670;23.398;2023-08-20T07:09:47;95221.72;;;25.89;100.00
4415;BME280;2220;42.670;23.398;2023-08-20T07:12:12;95221.75;;;26.05;100.00
4415;BME280;2220;42.670;23.398;2023-08-20T07:14:38;95216.88;;;25.79;100.00
4415;BME280;2220;42.670;23.398;2023-08-20T07:17:03;95215.78;;;25.96;100.00
4415;BME280;2220;42.670;23.398;2023-08-20T07:19:30;95217.75;;;26.27;100.00
4415;BME280;2220;42.670;23.398;2023-08-20T07:21:55;95210.59;;;26.46;100.00
4415;BME280;2220;42.670;23.398;2023-08-20T07:24:21;95211.53;;;26.70;100.00
4415;BME280;2220;42.670;23.398;2023-08-20T07:26:54;95216.03;;;26.66;100.00
4415;BME280;2220;42.670;23.398;2023-08-20T07:29:25;95212.22;;;26.83;100.00
4415;BME280;2220;42.670;23.398;2023-08-20T07:31:50;95210.66;;;26.97;100.00
4415;BME280;2220;42.670;23.398;2023-08-20T07:34:16;95216.00;;;27.13;100.00
4415;BME280;2220;42.670;23.398;2023-08-20T07:36:41;95215.59;;;27.30;100.00
4415;BME280;2220;42.670;23.398;2023-08-20T07:39:07;95208.28;;;27.27;100.00
4415;BME280;2220;42.670;23.398;2023-08-20T07:41:33;95210.72;;;27.17;100.00
4415;BME280;2220;42.670;23.398;2023-08-20T07:43:59;95214.41;;;27.28;100.00
4415;BME280;2220;42.670;23.398;2023-08-20T07:46:25;95212.59;;;27.51;100.00
4415;BME280;2220;42.670;23.398;2023-08-20T07:48:50;95212.50;;;27.67;100.00
4415;BME280;2220;42.670;23.398;2023-08-20T07:51:16;95205.47;;;27.78;100.00
4415;BME280;2220;42.670;23.398;2023-08-20T07:53:41;95205.06;;;27.99;100.00
4415;BME280;2220;42.670;23.398;2023-08-20T07:56:07;95196.72;;;27.62;100.00
4415;BME280;2220;42.670;23.398;2023-08-20T07:58:35;95203.34;;;27.29;100.00
4415;BME280;2220;42.670;23.398;2023-08-20T08:01:00;95199.59;;;27.34;100.00
4415;BME280;2220;42.670;23.398;2023-08-20T08:03:26;95204.47;;;27.48;100.00
4415;BME280;2220;42.670;23.398;2023-08-20T08:05:52;95197.63;;;27.50;100.00
4415;BME280;2220;42.670;23.398;2023-08-20T08:08:19;95202.53;;;27.83;100.00
4415;BME280;2220;42.670;23.398;2023-08-20T08:10:45;95193.69;;;28.02;100.00
4415;BME280;2220;42.670;23.398;2023-08-20T08:13:12;95203.78;;;28.32;100.00
4415;BME280;2220;42.670;23.398;2023-08-20T08:15:38;95199.59;;;28.34;100.00
4415;BME280;2220;42.670;23.398;2023-08-20T08:18:04;95191.56;;;28.34;100.00
4415;BME280;2220;42.670;23.398;2023-08-20T08:20:29;95201.75;;;28.48;100.00
4415;BME280;2220;42.670;23.398;2023-08-20T08:22:55;95201.88;;;28.82;100.00
4415;BME280;2220;42.670;23.398;2023-08-20T08:25:20;95196.03;;;28.76;100.00
4415;BME280;2220;42.670;23.398;2023-08-20T08:27:46;95196.09;;;28.80;100.00
4415;BME280;2220;42.670;23.398;2023-08-20T08:30:11;95192.63;;;28.79;100.00
4415;BME280;2220;42.670;23.398;2023-08-20T08:32:37;95193.25;;;28.92;100.00
4415;BME280;2220;42.670;23.398;2023-08-20T08:35:02;95187.75;;;29.11;100.00
4415;BME280;2220;42.670;23.398;2023-08-20T08:37:28;95183.56;;;28.87;96.10
4415;BME280;2220;42.670;23.398;2023-08-20T08:39:53;95189.25;;;28.56;93.78
4415;BME280;2220;42.670;23.398;2023-08-20T08:42:22;95185.78;;;28.82;93.14
4415;BME280;2220;42.670;23.398;2023-08-20T08:44:48;95185.69;;;29.01;95.31
4415;BME280;2220;42.670;23.398;2023-08-20T08:47:14;95189.06;;;29.24;90.69
4415;BME280;2220;42.670;23.398;2023-08-20T08:49:40;95184.94;;;29.31;88.12
4415;BME280;2220;42.670;23.398;2023-08-20T08:52:06;95191.81;;;29.58;89.12
4415;BME280;2220;42.670;23.398;2023-08-20T08:54:33;95184.88;;;29.27;88.15
4415;BME280;2220;42.670;23.398;2023-08-20T08:56:59;95187.75;;;29.41;88.86
4415;BME280;2220;42.670;23.398;2023-08-20T08:59:24;95191.03;;;29.27;89.37
4415;BME280;2220;42.670;23.398;2023-08-20T09:01:50;95184.97;;;29.64;88.30
4415;BME280;2220;42.670;23.398;2023-08-20T09:04:15;95180.31;;;29.95;87.56
4415;BME280;2220;42.670;23.398;2023-08-20T09:06:48;95190.53;;;29.82;84.37
4415;BME280;2220;42.670;23.398;2023-08-20T09:09:16;95185.63;;;29.54;83.21
4415;BME280;2220;42.670;23.398;2023-08-20T09:11:42;95180.75;;;29.63;83.01
4415;BME280;2220;42.670;23.398;2023-08-20T09:14:07;95176.03;;;29.90;84.24
4415;BME280;2220;42.670;23.398;2023-08-20T09:16:33;95181.28;;;30.13;82.19
4415;BME280;2220;42.670;23.398;2023-08-20T09:18:59;95183.63;;;30.18;77.78
4415;BME280;2220;42.670;23.398;2023-08-20T09:21:29;95171.31;;;29.13;80.77
4415;BME280;2220;42.670;23.398;2023-08-20T09:23:58;95186.19;;;29.10;83.02
4415;BME280;2220;42.670;23.398;2023-08-20T09:26:26;95177.25;;;29.59;81.86
4415;BME280;2220;42.670;23.398;2023-08-20T09:28:55;95184.84;;;29.87;81.41
4415;BME280;2220;42.670;23.398;2023-08-20T09:31:37;95189.53;;;30.34;79.86
4415;BME280;2220;42.670;23.398;2023-08-20T09:34:04;95184.50;;;30.29;79.13
4415;BME280;2220;42.670;23.398;2023-08-20T09:36:33;95187.00;;;29.74;76.28
4415;BME280;2220;42.670;23.398;2023-08-20T09:39:00;95177.84;;;29.45;73.52
4415;BME280;2220;42.670;23.398;2023-08-20T09:41:26;95180.75;;;29.63;74.71
4415;BME280;2220;42.670;23.398;2023-08-20T09:43:57;95181.53;;;30.01;70.55
4415;BME280;2220;42.670;23.398;2023-08-20T09:46:24;95176.16;;;30.01;70.23
4415;BME280;2220;42.670;23.398;2023-08-20T09:48:51;95174.13;;;30.31;72.35
4415;BME280;2220;42.670;23.398;2023-08-20T09:51:21;95178.75;;;30.31;70.76
4415;BME280;2220;42.670;23.398;2023-08-20T09:53:56;95171.25;;;30.51;67.40
4415;BME280;2220;42.670;23.398;2023-08-20T09:56:28;95174.84;;;30.66;67.45
4415;BME280;2220;42.670;23.398;2023-08-20T09:59:00;95179.50;;;30.72;69.92
4415;BME280;2220;42.670;23.398;2023-08-20T10:01:27;95171.53;;;30.90;70.41
4415;BME280;2220;42.670;23.398;2023-08-20T10:03:53;95172.56;;;30.71;65.64
4415;BME280;2220;42.670;23.398;2023-08-20T10:06:19;95173.88;;;30.44;66.87
4415;BME280;2220;42.670;23.398;2023-08-20T10:08:46;95174.31;;;30.49;71.17
4415;BME280;2220;42.670;23.398;2023-08-20T10:11:12;95176.53;;;30.95;71.28
4415;BME280;2220;42.670;23.398;2023-08-20T10:13:38;95178.41;;;30.80;70.68
4415;BME280;2220;42.670;23.398;2023-08-20T10:16:04;95173.19;;;31.12;69.24
4415;BME280;2220;42.670;23.398;2023-08-20T10:18:30;95182.84;;;31.21;68.97
4415;BME280;2220;42.670;23.398;2023-08-20T10:20:58;95176.38;;;31.32;69.03
4415;BME280;2220;42.670;23.398;2023-08-20T10:23:24;95179.75;;;30.60;68.54
4415;BME280;2220;42.670;23.398;2023-08-20T10:25:52;95178.78;;;30.82;69.66
4415;BME280;2220;42.670;23.398;2023-08-20T10:28:24;95165.09;;;30.54;70.44
4415;BME280;2220;42.670;23.398;2023-08-20T10:31:07;95173.31;;;30.24;69.93
4415;BME280;2220;42.670;23.398;2023-08-20T10:33:49;95176.88;;;30.35;70.97
4415;BME280;2220;42.670;23.398;2023-08-20T10:36:21;95166.56;;;30.00;74.48
4415;BME280;2220;42.670;23.398;2023-08-20T10:38:50;95166.16;;;29.98;74.81
4415;BME280;2220;42.670;23.398;2023-08-20T10:41:15;95171.25;;;30.51;74.71
4415;BME280;2220;42.670;23.398;2023-08-20T10:43:47;95159.09;;;30.23;76.13
4415;BME280;2220;42.670;23.398;2023-08-20T10:48:41;95152.94;;;30.19;76.55
4415;BME280;2220;42.670;23.398;2023-08-20T10:51:09;95161.41;;;30.66;75.55
4415;BME280;2220;42.670;23.398;2023-08-20T10:53:34;95150.13;;;30.53;75.32
4415;BME280;2220;42.670;23.398;2023-08-20T10:56:16;95153.19;;;31.10;74.78
4415;BME280;2220;42.670;23.398;2023-08-20T10:58:46;95143.75;;;31.41;74.19
4415;BME280;2220;42.670;23.398;2023-08-20T11:01:18;95148.41;;;31.55;72.72
4415;BME280;2220;42.670;23.398;2023-08-20T11:03:45;95150.72;;;31.56;71.50
4415;BME280;2220;42.670;23.398;2023-08-20T11:06:12;95137.59;;;31.40;70.69
4415;BME280;2220;42.670;23.398;2023-08-20T11:08:38;95146.91;;;31.61;69.67
4415;BME280;2220;42.670;23.398;2023-08-20T11:11:05;95139.56;;;31.58;69.93
4415;BME280;2220;42.670;23.398;2023-08-20T11:13:32;95138.94;;;31.02;71.04
4415;BME280;2220;42.670;23.398;2023-08-20T11:16:00;95129.88;;;31.28;70.50
4415;BME280;2220;42.670;23.398;2023-08-20T11:18:25;95130.31;;;31.48;71.32
4415;BME280;2220;42.670;23.398;2023-08-20T11:20:51;95131.78;;;31.31;70.56
4415;BME280;2220;42.670;23.398;2023-08-20T11:23:17;95134.06;;;31.26;70.63
4415;BME280;2220;42.670;23.398;2023-08-20T11:25:43;95132.00;;;30.98;71.42
4415;BME280;2220;42.670;23.398;2023-08-20T11:28:09;95131.63;;;31.03;71.74
4415;BME280;2220;42.670;23.398;2023-08-20T11:30:35;95121.59;;;30.89;71.29
4415;BME280;2220;42.670;23.398;2023-08-20T11:33:00;95121.28;;;31.08;70.99
4415;BME280;2220;42.670;23.398;2023-08-20T11:35:27;95119.34;;;31.02;71.03
4415;BME280;2220;42.670;23.398;2023-08-20T11:37:53;95098.66;;;31.20;70.84
4415;BME280;2220;42.670;23.398;2023-08-20T11:40:21;95125.03;;;30.86;72.76
4415;BME280;2220;42.670;23.398;2023-08-20T11:42:48;95124.72;;;31.02;72.85
4415;BME280;2220;42.670;23.398;2023-08-20T11:45:13;95116.03;;;31.30;73.48
4415;BME280;2220;42.670;23.398;2023-08-20T11:47:40;95112.66;;;31.75;71.50
4415;BME280;2220;42.670;23.398;2023-08-20T11:50:06;95112.75;;;32.00;70.75
4415;BME280;2220;42.670;23.398;2023-08-20T11:52:32;95118.16;;;32.50;70.69
4415;BME280;2220;42.670;23.398;2023-08-20T11:54:59;95115.38;;;32.79;70.38
4415;BME280;2220;42.670;23.398;2023-08-20T11:57:25;95108.47;;;32.64;68.79
4415;BME280;2220;42.670;23.398;2023-08-20T11:59:51;95099.66;;;31.95;70.09
4415;BME280;2220;42.670;23.398;2023-08-20T12:02:25;95106.63;;;32.36;69.99
4415;BME280;2220;42.670;23.398;2023-08-20T12:04:51;95106.97;;;32.45;68.84
4415;BME280;2220;42.670;23.398;2023-08-20T12:07:16;95093.06;;;32.71;68.81
4415;BME280;2220;42.670;23.398;2023-08-20T12:09:42;95095.63;;;33.18;68.81
4415;BME280;2220;42.670;23.398;2023-08-20T12:12:08;95099.13;;;33.11;67.34
4415;BME280;2220;42.670;23.398;2023-08-20T12:14:37;95097.34;;;31.90;70.11
4415;BME280;2220;42.670;23.398;2023-08-20T12:17:02;95089.94;;;31.59;71.03
4415;BME280;2220;42.670;23.398;2023-08-20T12:19:30;95096.22;;;32.09;71.83
4415;BME280;2220;42.670;23.398;2023-08-20T12:21:56;95085.00;;;32.53;68.51
4415;BME280;2220;42.670;23.398;2023-08-20T12:24:22;95090.03;;;32.19;69.03
4415;BME280;2220;42.670;23.398;2023-08-20T12:26:47;95065.00;;;32.22;69.43
4415;BME280;2220;42.670;23.398;2023-08-20T12:29:13;95080.03;;;32.38;69.17
4415;BME280;2220;42.670;23.398;2023-08-20T12:31:40;95070.41;;;32.19;69.87
4415;BME280;2220;42.670;23.398;2023-08-20T12:34:07;95071.19;;;32.19;71.10
4415;BME280;2220;42.670;23.398;2023-08-20T12:36:33;95082.28;;;32.68;71.45
4415;BME280;2220;42.670;23.398;2023-08-20T12:38:59;95086.50;;;32.90;69.38
4415;BME280;2220;42.670;23.398;2023-08-20T12:41:24;95073.78;;;32.80;69.10
4415;BME280;2220;42.670;23.398;2023-08-20T12:43:50;95073.84;;;32.55;68.58
4415;BME280;2220;42.670;23.398;2023-08-20T12:46:16;95079.66;;;32.36;69.00
4415;BME280;2220;42.670;23.398;2023-08-20T12:48:42;95079.22;;;32.66;69.03
4415;BME280;2220;42.670;23.398;2023-08-20T12:51:07;95077.72;;;32.58;68.49
4415;BME280;2220;42.670;23.398;2023-08-20T12:53:33;95061.16;;;32.23;69.98
4415;BME280;2220;42.670;23.398;2023-08-20T12:55:59;95065.03;;;31.94;70.41
4415;BME280;2220;42.670;23.398;2023-08-20T12:58:24;95068.84;;;31.82;70.67
4415;BME280;2220;42.670;23.398;2023-08-20T13:00:50;95063.06;;;31.73;70.45
4415;BME280;2220;42.670;23.398;2023-08-20T13:03:17;95053.88;;;31.95;70.64
4415;BME280;2220;42.670;23.398;2023-08-20T13:05:43;95058.50;;;32.02;70.11
4415;BME280;2220;42.670;23.398;2023-08-20T13:08:09;95072.72;;;32.10;70.07
4415;BME280;2220;42.670;23.398;2023-08-20T13:10:39;95063.84;;;32.23;70.00